createdAt,value
2024-05-09T00:00:59.864Z,1155.00
2024-05-09T00:01:59.865Z,1156.00
2024-05-09T00:02:59.850Z,1157.00
2024-05-09T00:03:59.869Z,1153.00
2024-05-09T00:04:59.948Z,1149.00
2024-05-09T00:05:59.971Z,1148.00
2024-05-09T00:06:59.844Z,1147.00
2024-05-09T00:07:59.875Z,1150.00
2024-05-09T00:08:59.855Z,1147.00
2024-05-09T00:09:59.862Z,1147.00
2024-05-09T00:10:59.916Z,1145.00
2024-05-09T00:12:00.063Z,1145.00
2024-05-09T00:12:59.851Z,1141.00
2024-05-09T00:13:59.887Z,1140.00
2024-05-09T00:14:59.878Z,1139.00
2024-05-09T00:15:59.868Z,1141.00
2024-05-09T00:16:59.891Z,1141.00
2024-05-09T00:18:05.729Z,1142.00
2024-05-09T00:19:00.022Z,1145.00
2024-05-09T00:19:59.886Z,1143.00
2024-05-09T00:21:00.000Z,1143.00
2024-05-09T00:21:59.877Z,1141.00
2024-05-09T00:22:59.893Z,1137.00
2024-05-09T00:23:59.861Z,1139.00
2024-05-09T00:24:59.876Z,1140.00
2024-05-09T00:25:59.956Z,1143.00
2024-05-09T00:26:59.878Z,1141.00
2024-05-09T00:27:59.890Z,1139.00
2024-05-09T00:28:59.923Z,1141.00
2024-05-09T00:29:59.894Z,1137.00
2024-05-09T00:30:59.904Z,1132.00
2024-05-09T00:32:00.017Z,1132.00
2024-05-09T00:32:59.989Z,1134.00
2024-05-09T00:34:00.047Z,1131.00
2024-05-09T00:34:59.924Z,1127.00
2024-05-09T00:35:59.892Z,1122.00
2024-05-09T00:36:59.909Z,1123.00
2024-05-09T00:38:00.107Z,1122.00
2024-05-09T00:38:59.894Z,1118.00
2024-05-09T00:39:59.895Z,1114.00
2024-05-09T00:40:59.965Z,1114.00
2024-05-09T00:42:04.956Z,1115.00
2024-05-09T00:42:59.936Z,1115.00
2024-05-09T00:44:00.029Z,1119.00
2024-05-09T00:44:59.985Z,1117.00
2024-05-09T00:45:59.994Z,1113.00
2024-05-09T00:47:00.029Z,1110.00
2024-05-09T00:48:00.262Z,1111.00
2024-05-09T00:49:00.025Z,1112.00
2024-05-09T00:50:00.023Z,1113.00
2024-05-09T00:51:00.022Z,1116.00
2024-05-09T00:52:00.023Z,1118.00
2024-05-09T00:53:00.080Z,1120.00
2024-05-09T00:54:00.124Z,1119.00
2024-05-09T00:55:00.188Z,1118.00
2024-05-09T00:56:01.033Z,1113.00
2024-05-09T00:57:00.345Z,1106.00
2024-05-09T00:58:00.467Z,1102.00
2024-05-09T00:59:00.657Z,1099.00
2024-05-09T01:00:00.725Z,1101.00
2024-05-09T01:01:00.877Z,1099.00
2024-05-09T01:02:01.043Z,1100.00
2024-05-09T01:03:01.288Z,1102.00
2024-05-09T01:04:01.327Z,1103.00
2024-05-09T01:05:01.426Z,1103.00
2024-05-09T01:06:01.464Z,1105.00
2024-05-09T01:07:01.556Z,1105.00
2024-05-09T01:08:01.768Z,1106.00
2024-05-09T01:09:01.791Z,1107.00
2024-05-09T01:10:01.906Z,1107.00
2024-05-09T01:11:02.154Z,1107.00
2024-05-09T01:12:02.403Z,1109.00
2024-05-09T01:13:02.294Z,1102.00
2024-05-09T01:14:02.465Z,1099.00
2024-05-09T01:15:02.565Z,1098.00
2024-05-09T01:16:02.661Z,1094.00
2024-05-09T01:17:02.864Z,1091.00
2024-05-09T01:18:03.112Z,1089.00
2024-05-09T01:19:03.344Z,1091.00
2024-05-09T01:20:05.794Z,1090.00
2024-05-09T01:21:03.207Z,1089.00
2024-05-09T01:22:07.073Z,1080.00
2024-05-09T01:23:03.230Z,1081.00
2024-05-09T01:24:03.188Z,1082.00
2024-05-09T01:25:03.209Z,1079.00
2024-05-09T01:26:03.239Z,1082.00
2024-05-09T01:27:03.214Z,1080.00
2024-05-09T01:28:03.226Z,1083.00
2024-05-09T01:29:03.232Z,1083.00
2024-05-09T01:30:07.039Z,1080.00
2024-05-09T01:31:04.202Z,1074.00
2024-05-09T01:32:03.280Z,1072.00
2024-05-09T01:33:03.574Z,1072.00
2024-05-09T01:34:03.276Z,1073.00
2024-05-09T01:35:03.241Z,1069.00
2024-05-09T01:36:03.210Z,1068.00
2024-05-09T01:37:03.219Z,1066.00
2024-05-09T01:38:03.284Z,1068.00
2024-05-09T01:39:03.336Z,1072.00
2024-05-09T01:40:03.669Z,1072.00
2024-05-09T01:41:03.615Z,1069.00
2024-05-09T01:42:08.657Z,1063.00
2024-05-09T01:43:03.627Z,1065.00
2024-05-09T01:44:03.690Z,1063.00
2024-05-09T01:45:03.639Z,1060.00
2024-05-09T01:46:03.648Z,1057.00
2024-05-09T01:47:03.670Z,1062.00
2024-05-09T01:48:04.104Z,1062.00
2024-05-09T01:49:03.765Z,1060.00
2024-05-09T01:50:03.760Z,1059.00
2024-05-09T01:51:03.677Z,1057.00
2024-05-09T01:52:03.777Z,1057.00
2024-05-09T01:53:03.950Z,1054.00
2024-05-09T01:54:04.010Z,1059.00
2024-05-09T01:55:06.481Z,1058.00
2024-05-09T01:56:04.156Z,1055.00
2024-05-09T01:57:04.135Z,1055.00
2024-05-09T01:58:04.203Z,1055.00
2024-05-09T01:59:04.196Z,1057.00
2024-05-09T02:00:06.073Z,1059.00
2024-05-09T02:01:04.188Z,1057.00
2024-05-09T02:02:04.268Z,1056.00
2024-05-09T02:03:04.293Z,1054.00
2024-05-09T02:04:04.453Z,1048.00
2024-05-09T02:05:04.300Z,1041.00
2024-05-09T02:06:04.201Z,1039.00
2024-05-09T02:07:04.174Z,1041.00
2024-05-09T02:08:04.220Z,1040.00
2024-05-09T02:09:04.195Z,1038.00
2024-05-09T02:10:10.813Z,1039.00
2024-05-09T02:11:05.285Z,1039.00
2024-05-09T02:12:08.936Z,1039.00
2024-05-09T02:13:04.190Z,1042.00
2024-05-09T02:14:04.223Z,1043.00
2024-05-09T02:15:04.196Z,1043.00
2024-05-09T02:16:04.198Z,1048.00
2024-05-09T02:17:04.273Z,1045.00
2024-05-09T02:18:04.558Z,1047.00
2024-05-09T02:19:04.277Z,1043.00
2024-05-09T02:20:06.012Z,1044.00
2024-05-09T02:21:04.361Z,1046.00
2024-05-09T02:22:04.221Z,1044.00
2024-05-09T02:23:04.898Z,1046.00
2024-05-09T02:24:04.276Z,1045.00
2024-05-09T02:25:04.224Z,1046.00
2024-05-09T02:26:04.335Z,1046.00
2024-05-09T02:27:04.395Z,1049.00
2024-05-09T02:28:04.523Z,1049.00
2024-05-09T02:29:04.620Z,1046.00
2024-05-09T02:30:09.920Z,1048.00
2024-05-09T02:31:05.734Z,1051.00
2024-05-09T02:32:04.784Z,1051.00
2024-05-09T02:33:04.975Z,1049.00
2024-05-09T02:34:04.960Z,1049.00
2024-05-09T02:35:04.765Z,1047.00
2024-05-09T02:36:04.743Z,1047.00
2024-05-09T02:37:04.758Z,1048.00
2024-05-09T02:38:04.813Z,1046.00
2024-05-09T02:39:04.883Z,1042.00
2024-05-09T02:40:05.749Z,1039.00
2024-05-09T02:41:05.061Z,1037.00
2024-05-09T02:42:05.095Z,1037.00
2024-05-09T02:43:05.388Z,1038.00
2024-05-09T02:44:05.298Z,1039.00
2024-05-09T02:45:05.344Z,1039.00
2024-05-09T02:46:05.458Z,1036.00
2024-05-09T02:47:05.630Z,1035.00
2024-05-09T02:48:05.910Z,1034.00
2024-05-09T02:49:05.774Z,1032.00
2024-05-09T02:50:07.818Z,1026.00
2024-05-09T02:51:05.852Z,1023.00
2024-05-09T02:52:05.860Z,1022.00
2024-05-09T02:53:06.354Z,1022.00
2024-05-09T02:54:06.136Z,1020.00
2024-05-09T02:55:06.259Z,1015.00
2024-05-09T02:56:06.407Z,1012.00
2024-05-09T02:57:06.566Z,1009.00
2024-05-09T02:58:06.637Z,1008.00
2024-05-09T02:59:06.804Z,1009.00
2024-05-09T03:00:14.947Z,1010.00
2024-05-09T03:01:07.925Z,1010.00
2024-05-09T03:02:07.020Z,1009.00
2024-05-09T03:03:07.203Z,1009.00
2024-05-09T03:04:07.135Z,1007.00
2024-05-09T03:05:06.955Z,1003.00
2024-05-09T03:06:06.892Z,1006.00
2024-05-09T03:07:06.933Z,1006.00
2024-05-09T03:08:07.016Z,1002.00
2024-05-09T03:09:07.016Z,1001.00
2024-05-09T03:10:14.567Z,1003.00
2024-05-09T03:11:08.209Z,1001.00
2024-05-09T03:12:07.208Z,1000.00
2024-05-09T03:13:07.151Z,995.00
2024-05-09T03:14:07.231Z,997.00
2024-05-09T03:15:07.197Z,997.00
2024-05-09T03:16:07.199Z,1004.00
2024-05-09T03:17:17.394Z,1004.00
2024-05-09T03:18:07.611Z,1003.00
2024-05-09T03:19:07.275Z,1002.00
2024-05-09T03:20:14.542Z,992.00
2024-05-09T03:21:08.358Z,990.00
2024-05-09T03:22:07.201Z,988.00
2024-05-09T03:23:07.462Z,989.00
2024-05-09T03:24:07.223Z,992.00
2024-05-09T03:25:07.234Z,993.00
2024-05-09T03:26:07.258Z,987.00
2024-05-09T03:27:07.272Z,985.00
2024-05-09T03:28:07.285Z,989.00
2024-05-09T03:29:07.402Z,990.00
2024-05-09T03:30:09.643Z,989.00
2024-05-09T03:31:07.539Z,984.00
2024-05-09T03:32:07.758Z,985.00
2024-05-09T03:33:08.125Z,987.00
2024-05-09T03:34:07.919Z,989.00
2024-05-09T03:35:07.874Z,988.00
2024-05-09T03:36:10.535Z,987.00
2024-05-09T03:37:07.885Z,987.00
2024-05-09T03:38:07.934Z,988.00
2024-05-09T03:39:07.896Z,987.00
2024-05-09T03:40:11.822Z,986.00
2024-05-09T03:41:08.964Z,987.00
2024-05-09T03:42:07.893Z,983.00
2024-05-09T03:43:07.896Z,980.00
2024-05-09T03:44:07.930Z,977.00
2024-05-09T03:45:07.915Z,978.00
2024-05-09T03:46:07.903Z,979.00
2024-05-09T03:47:08.030Z,979.00
2024-05-09T03:48:08.226Z,980.00
2024-05-09T03:49:08.076Z,978.00
2024-05-09T03:50:15.134Z,975.00
2024-05-09T03:51:09.214Z,974.00
2024-05-09T03:52:08.038Z,971.00
2024-05-09T03:53:08.116Z,972.00
2024-05-09T03:54:08.049Z,971.00
2024-05-09T03:55:08.047Z,967.00
2024-05-09T03:56:08.104Z,963.00
2024-05-09T03:57:08.063Z,960.00
2024-05-09T03:58:08.268Z,957.00
2024-05-09T03:59:08.160Z,956.00
2024-05-09T04:00:14.849Z,956.00
2024-05-09T04:01:09.296Z,958.00
2024-05-09T04:02:08.356Z,961.00
2024-05-09T04:03:10.967Z,964.00
2024-05-09T04:04:08.299Z,960.00
2024-05-09T04:05:08.304Z,961.00
2024-05-09T04:06:08.254Z,953.00
2024-05-09T04:07:08.289Z,954.00
2024-05-09T04:08:08.296Z,954.00
2024-05-09T04:09:08.276Z,947.00
2024-05-09T04:10:11.262Z,936.00
2024-05-09T04:11:09.336Z,934.00
2024-05-09T04:12:08.409Z,936.00
2024-05-09T04:13:08.278Z,941.00
2024-05-09T04:14:08.327Z,948.00
2024-05-09T04:15:12.071Z,962.00
2024-05-09T04:16:08.309Z,967.00
2024-05-09T04:17:08.323Z,966.00
2024-05-09T04:18:08.654Z,962.00
2024-05-09T04:19:08.411Z,961.00
2024-05-09T04:20:10.583Z,959.00
2024-05-09T04:21:08.465Z,955.00
2024-05-09T04:22:08.422Z,956.00
2024-05-09T04:23:09.264Z,955.00
2024-05-09T04:24:08.335Z,957.00
2024-05-09T04:25:08.340Z,958.00
2024-05-09T04:26:08.433Z,955.00
2024-05-09T04:27:08.352Z,951.00
2024-05-09T04:28:08.343Z,948.00
2024-05-09T04:29:09.094Z,947.00
2024-05-09T04:30:15.270Z,945.00
2024-05-09T04:31:09.347Z,947.00
2024-05-09T04:32:16.718Z,947.00
2024-05-09T04:33:16.787Z,950.00
2024-05-09T04:34:16.710Z,950.00
2024-05-09T04:35:16.760Z,949.00
2024-05-09T04:36:16.840Z,950.00
2024-05-09T04:37:16.970Z,946.00
2024-05-09T04:38:17.214Z,944.00
2024-05-09T04:39:17.205Z,943.00
2024-05-09T04:40:27.546Z,943.00
2024-05-09T04:41:18.334Z,943.00
2024-05-09T04:42:17.336Z,940.00
2024-05-09T04:43:17.516Z,943.00
2024-05-09T04:44:17.341Z,944.00
2024-05-09T04:45:17.374Z,946.00
2024-05-09T04:46:17.366Z,946.00
2024-05-09T04:47:17.534Z,946.00
2024-05-09T04:48:17.510Z,947.00
2024-05-09T04:49:17.535Z,952.00
2024-05-09T04:50:25.341Z,952.00
2024-05-09T04:51:18.359Z,954.00
2024-05-09T04:52:17.373Z,949.00
2024-05-09T04:53:17.692Z,948.00
2024-05-09T04:54:26.497Z,948.00
2024-05-09T04:55:18.359Z,947.00
2024-05-09T04:56:17.413Z,945.00
2024-05-09T04:57:17.385Z,942.00
2024-05-09T04:58:17.376Z,940.00
2024-05-09T04:59:17.441Z,937.00
2024-05-09T05:00:25.462Z,933.00
2024-05-09T05:01:18.455Z,929.00
2024-05-09T05:02:22.519Z,925.00
2024-05-09T05:03:17.808Z,925.00
2024-05-09T05:04:17.623Z,927.00
2024-05-09T05:05:17.576Z,929.00
2024-05-09T05:06:17.505Z,928.00
2024-05-09T05:07:17.622Z,926.00
2024-05-09T05:08:18.802Z,927.00
2024-05-09T05:09:17.818Z,927.00
2024-05-09T05:10:25.268Z,929.00
2024-05-09T05:11:19.024Z,930.00
2024-05-09T05:12:17.940Z,926.00
2024-05-09T05:13:18.935Z,925.00
2024-05-09T05:14:17.920Z,927.00
2024-05-09T05:15:17.872Z,929.00
2024-05-09T05:16:17.875Z,930.00
2024-05-09T05:17:17.936Z,930.00
2024-05-09T05:18:18.486Z,930.00
2024-05-09T05:19:18.023Z,932.00
2024-05-09T05:20:27.060Z,930.00
2024-05-09T05:21:19.141Z,930.00
2024-05-09T05:22:17.866Z,930.00
2024-05-09T05:23:17.975Z,931.00
2024-05-09T05:24:17.890Z,930.00
2024-05-09T05:25:17.895Z,927.00
2024-05-09T05:26:17.931Z,925.00
2024-05-09T05:27:17.928Z,926.00
2024-05-09T05:28:17.880Z,925.00
2024-05-09T05:29:20.821Z,926.00
2024-05-09T05:30:24.773Z,925.00
2024-05-09T05:31:18.955Z,924.00
2024-05-09T05:32:18.152Z,920.00
2024-05-09T05:33:18.396Z,920.00
2024-05-09T05:34:17.907Z,923.00
2024-05-09T05:35:18.032Z,923.00
2024-05-09T05:36:17.990Z,925.00
2024-05-09T05:37:17.916Z,920.00
2024-05-09T05:38:18.148Z,922.00
2024-05-09T05:39:17.933Z,922.00
2024-05-09T05:40:27.960Z,920.00
2024-05-09T05:41:19.066Z,921.00
2024-05-09T05:42:17.917Z,919.00
2024-05-09T05:43:18.115Z,914.00
2024-05-09T05:44:17.958Z,912.00
2024-05-09T05:45:17.920Z,912.00
2024-05-09T05:46:17.917Z,907.00
2024-05-09T05:47:17.999Z,905.00
2024-05-09T05:48:18.392Z,910.00
2024-05-09T05:49:18.090Z,914.00
2024-05-09T05:50:27.271Z,914.00
2024-05-09T05:51:19.165Z,913.00
2024-05-09T05:52:18.027Z,913.00
2024-05-09T05:53:18.122Z,910.00
2024-05-09T05:54:18.041Z,910.00
2024-05-09T05:55:18.024Z,913.00
2024-05-09T05:56:18.091Z,910.00
2024-05-09T05:57:18.028Z,906.00
2024-05-09T05:58:18.033Z,904.00
2024-05-09T05:59:18.313Z,906.00
2024-05-09T06:00:29.124Z,908.00
2024-05-09T06:01:19.301Z,907.00
2024-05-09T06:02:18.370Z,909.00
2024-05-09T06:03:18.282Z,910.00
2024-05-09T06:04:18.335Z,909.00
2024-05-09T06:05:18.381Z,904.00
2024-05-09T06:06:18.251Z,902.00
2024-05-09T06:07:18.279Z,903.00
2024-05-09T06:08:18.303Z,899.00
2024-05-09T06:09:18.292Z,896.00
2024-05-09T06:10:25.178Z,894.00
2024-05-09T06:11:19.398Z,895.00
2024-05-09T06:12:18.332Z,898.00
2024-05-09T06:13:18.284Z,896.00
2024-05-09T06:14:18.372Z,894.00
2024-05-09T06:15:18.286Z,887.00
2024-05-09T06:16:18.289Z,885.00
2024-05-09T06:17:18.440Z,885.00
2024-05-09T06:18:18.674Z,889.00
2024-05-09T06:19:18.362Z,887.00
2024-05-09T06:20:23.994Z,885.00
2024-05-09T06:21:19.492Z,885.00
2024-05-09T06:22:18.292Z,881.00
2024-05-09T06:23:18.431Z,882.00
2024-05-09T06:24:18.292Z,883.00
2024-05-09T06:25:18.294Z,884.00
2024-05-09T06:26:18.366Z,883.00
2024-05-09T06:27:18.305Z,881.00
2024-05-09T06:28:18.302Z,882.00
2024-05-09T06:29:18.339Z,882.00
2024-05-09T06:31:18.288Z,882.00
2024-05-09T06:32:18.370Z,882.00
2024-05-09T06:33:18.599Z,877.00
2024-05-09T06:34:18.486Z,880.00
2024-05-09T06:35:18.426Z,880.00
2024-05-09T06:36:18.315Z,881.00
2024-05-09T06:37:18.321Z,880.00
2024-05-09T06:38:18.368Z,878.00
2024-05-09T06:39:18.358Z,876.00
2024-05-09T06:40:25.444Z,873.00
2024-05-09T06:41:19.386Z,871.00
2024-05-09T06:42:18.335Z,871.00
2024-05-09T06:43:19.617Z,871.00
2024-05-09T06:44:18.392Z,870.00
2024-05-09T06:45:18.346Z,870.00
2024-05-09T06:46:18.346Z,866.00
2024-05-09T06:47:18.441Z,866.00
2024-05-09T06:48:18.792Z,863.00
2024-05-09T06:49:18.573Z,862.00
2024-05-09T06:50:23.918Z,858.00
2024-05-09T06:51:19.384Z,860.00
2024-05-09T06:52:18.347Z,865.00
2024-05-09T06:53:18.372Z,864.00
2024-05-09T06:54:18.356Z,860.00
2024-05-09T06:55:18.449Z,860.00
2024-05-09T06:56:18.423Z,861.00
2024-05-09T06:57:18.367Z,860.00
2024-05-09T06:58:18.358Z,862.00
2024-05-09T06:59:18.471Z,860.00
2024-05-09T07:00:26.895Z,862.00
2024-05-09T07:01:19.421Z,861.00
2024-05-09T07:02:18.453Z,862.00
2024-05-09T07:03:19.480Z,860.00
2024-05-09T07:04:18.462Z,861.00
2024-05-09T07:05:18.484Z,862.00
2024-05-09T07:06:18.485Z,864.00
2024-05-09T07:07:18.395Z,864.00
2024-05-09T07:08:18.550Z,863.00
2024-05-09T07:09:18.390Z,863.00
2024-05-09T07:10:25.721Z,863.00
2024-05-09T07:11:19.462Z,859.00
2024-05-09T07:12:18.550Z,859.00
2024-05-09T07:13:18.387Z,857.00
2024-05-09T07:14:18.525Z,857.00
2024-05-09T07:15:18.402Z,855.00
2024-05-09T07:16:18.405Z,853.00
2024-05-09T07:17:18.459Z,851.00
2024-05-09T07:18:19.316Z,847.00
2024-05-09T07:19:18.678Z,844.00
2024-05-09T07:20:23.761Z,845.00
2024-05-09T07:21:19.676Z,844.00
2024-05-09T07:22:18.534Z,846.00
2024-05-09T07:23:18.760Z,847.00
2024-05-09T07:24:18.540Z,848.00
2024-05-09T07:25:18.550Z,846.00
2024-05-09T07:26:18.765Z,850.00
2024-05-09T07:27:18.560Z,849.00
2024-05-09T07:28:18.702Z,850.00
2024-05-09T07:29:18.696Z,848.00
2024-05-09T07:30:23.821Z,848.00
2024-05-09T07:31:19.578Z,846.00
2024-05-09T07:32:19.047Z,846.00
2024-05-09T07:33:19.553Z,848.00
2024-05-09T07:34:19.093Z,844.00
2024-05-09T07:35:18.567Z,839.00
2024-05-09T07:36:18.566Z,842.00
2024-05-09T07:37:18.572Z,841.00
2024-05-09T07:38:18.729Z,844.00
2024-05-09T07:39:18.668Z,843.00
2024-05-09T07:40:28.461Z,845.00
2024-05-09T07:41:19.608Z,844.00
2024-05-09T07:42:18.589Z,837.00
2024-05-09T07:43:18.590Z,838.00
2024-05-09T07:44:18.640Z,839.00
2024-05-09T07:47:14.456Z,838.00
2024-05-09T07:48:29.207Z,838.00
2024-05-09T07:53:38.234Z,835.00
2024-05-09T07:54:19.849Z,837.00
2024-05-09T07:55:18.944Z,838.00
2024-05-09T07:56:20.379Z,838.00
2024-05-09T07:57:18.725Z,843.00
2024-05-09T07:58:18.703Z,845.00
2024-05-09T07:59:18.646Z,844.00
2024-05-09T08:00:23.823Z,841.00
2024-05-09T08:01:20.037Z,839.00
2024-05-09T08:02:18.723Z,836.00
2024-05-09T08:03:18.826Z,835.00
2024-05-09T08:04:18.733Z,834.00
2024-05-09T08:05:18.807Z,833.00
2024-05-09T08:06:18.669Z,833.00
2024-05-09T08:07:18.711Z,832.00
2024-05-09T08:08:18.691Z,836.00
2024-05-09T08:09:21.243Z,840.00
2024-05-09T08:10:22.253Z,843.00
2024-05-09T08:11:19.769Z,844.00
2024-05-09T08:12:18.663Z,842.00
2024-05-09T08:13:18.817Z,839.00
2024-05-09T08:14:18.677Z,840.00
2024-05-09T08:15:18.680Z,839.00
2024-05-09T08:16:18.927Z,834.00
2024-05-09T08:17:18.730Z,829.00
2024-05-09T08:18:18.789Z,828.00
2024-05-09T08:19:18.805Z,823.00
2024-05-09T08:20:27.078Z,823.00
2024-05-09T08:21:19.751Z,822.00
2024-05-09T08:22:18.690Z,824.00
2024-05-09T08:23:18.674Z,824.00
2024-05-09T08:24:18.713Z,825.00
2024-05-09T08:25:18.757Z,825.00
2024-05-09T08:26:18.699Z,828.00
2024-05-09T08:27:18.698Z,828.00
2024-05-09T08:28:18.900Z,832.00
2024-05-09T08:29:18.851Z,831.00
2024-05-09T08:30:25.197Z,831.00
2024-05-09T08:31:20.051Z,834.00
2024-05-09T08:32:18.990Z,836.00
2024-05-09T08:33:19.009Z,834.00
2024-05-09T08:34:19.060Z,838.00
2024-05-09T08:35:18.955Z,844.00
2024-05-09T08:36:18.966Z,843.00
2024-05-09T08:37:22.533Z,841.00
2024-05-09T08:38:20.033Z,840.00
2024-05-09T08:39:18.953Z,845.00
2024-05-09T08:40:27.295Z,845.00
2024-05-09T08:41:19.985Z,841.00
2024-05-09T08:42:18.966Z,840.00
2024-05-09T08:43:19.276Z,841.00
2024-05-09T08:44:19.004Z,839.00
2024-05-09T08:45:18.982Z,837.00
2024-05-09T08:46:19.262Z,831.00
2024-05-09T08:47:19.001Z,831.00
2024-05-09T08:48:19.311Z,830.00
2024-05-09T08:49:19.044Z,827.00
2024-05-09T08:50:28.941Z,825.00
2024-05-09T08:51:19.984Z,821.00
2024-05-09T08:52:19.073Z,821.00
2024-05-09T08:53:19.009Z,822.00
2024-05-09T08:54:18.998Z,827.00
2024-05-09T08:55:19.047Z,828.00
2024-05-09T08:56:18.982Z,828.00
2024-05-09T08:57:18.993Z,831.00
2024-05-09T08:58:19.235Z,829.00
2024-05-09T08:59:18.994Z,828.00
2024-05-09T09:00:29.260Z,830.00
2024-05-09T09:01:20.117Z,833.00
2024-05-09T09:02:19.457Z,838.00
2024-05-09T09:03:27.017Z,840.00
2024-05-09T09:04:26.884Z,838.00
2024-05-09T09:05:26.916Z,833.00
2024-05-09T09:06:26.982Z,825.00
2024-05-09T09:07:27.075Z,823.00
2024-05-09T09:08:27.087Z,822.00
2024-05-09T09:09:27.282Z,823.00
2024-05-09T09:10:32.024Z,824.00
2024-05-09T09:11:28.344Z,826.00
2024-05-09T09:12:27.385Z,824.00
2024-05-09T09:13:27.332Z,822.00
2024-05-09T09:14:27.306Z,823.00
2024-05-09T09:15:27.373Z,829.00
2024-05-09T09:16:27.371Z,831.00
2024-05-09T09:17:27.416Z,830.00
2024-05-09T09:18:27.835Z,830.00
2024-05-09T09:19:27.429Z,831.00
2024-05-09T09:20:34.223Z,828.00
2024-05-09T09:21:28.338Z,829.00
2024-05-09T09:22:27.325Z,832.00
2024-05-09T09:23:27.335Z,836.00
2024-05-09T09:24:27.378Z,835.00
2024-05-09T09:25:27.319Z,834.00
2024-05-09T09:26:27.328Z,835.00
2024-05-09T09:27:27.369Z,834.00
2024-05-09T09:28:27.369Z,832.00
2024-05-09T09:29:27.410Z,829.00
2024-05-09T09:30:35.243Z,830.00
2024-05-09T09:31:28.708Z,833.00
2024-05-09T09:32:27.621Z,834.00
2024-05-09T09:33:27.582Z,832.00
2024-05-09T09:34:27.737Z,829.00
2024-05-09T09:35:27.540Z,829.00
2024-05-09T09:36:27.583Z,830.00
2024-05-09T09:37:27.559Z,826.00
2024-05-09T09:38:27.555Z,829.00
2024-05-09T09:39:27.731Z,828.00
2024-05-09T09:40:32.020Z,828.00
2024-05-09T09:41:28.785Z,828.00
2024-05-09T09:42:27.880Z,826.00
2024-05-09T09:43:27.842Z,822.00
2024-05-09T09:44:27.783Z,821.00
2024-05-09T09:45:27.858Z,820.00
2024-05-09T09:46:27.884Z,819.00
2024-05-09T09:47:27.937Z,817.00
2024-05-09T09:48:27.988Z,818.00
2024-05-09T09:49:27.977Z,819.00
2024-05-09T09:50:34.101Z,820.00
2024-05-09T09:51:29.132Z,824.00
2024-05-09T09:52:28.125Z,826.00
2024-05-09T09:53:28.098Z,825.00
2024-05-09T09:54:28.125Z,825.00
2024-05-09T09:55:28.107Z,828.00
2024-05-09T09:56:28.150Z,830.00
2024-05-09T09:57:28.139Z,830.00
2024-05-09T09:58:28.275Z,828.00
2024-05-09T09:59:28.121Z,830.00
2024-05-09T10:00:32.862Z,830.00
2024-05-09T10:01:29.213Z,829.00
2024-05-09T10:02:28.250Z,830.00
2024-05-09T10:03:28.270Z,828.00
2024-05-09T10:04:28.266Z,827.00
2024-05-09T10:05:28.322Z,826.00
2024-05-09T10:06:28.138Z,830.00
2024-05-09T10:07:28.124Z,830.00
2024-05-09T10:08:28.140Z,828.00
2024-05-09T10:09:28.161Z,831.00
2024-05-09T10:10:32.322Z,833.00
2024-05-09T10:11:29.187Z,831.00
2024-05-09T10:12:28.237Z,829.00
2024-05-09T10:13:28.215Z,828.00
2024-05-09T10:14:28.143Z,830.00
2024-05-09T10:15:28.242Z,830.00
2024-05-09T10:16:28.206Z,831.00
2024-05-09T10:17:28.210Z,829.00
2024-05-09T10:18:30.380Z,826.00
2024-05-09T10:19:28.369Z,827.00
2024-05-09T10:20:32.386Z,829.00
2024-05-09T10:21:28.230Z,823.00
2024-05-09T10:22:28.278Z,822.00
2024-05-09T10:23:28.272Z,824.00
2024-05-09T10:24:28.239Z,822.00
2024-05-09T10:25:28.290Z,820.00
2024-05-09T10:26:28.201Z,821.00
2024-05-09T10:27:28.247Z,820.00
2024-05-09T10:28:28.246Z,818.00
2024-05-09T10:29:28.250Z,818.00
2024-05-09T10:30:34.154Z,823.00
2024-05-09T10:31:29.287Z,824.00
2024-05-09T10:32:28.477Z,820.00
2024-05-09T10:33:28.420Z,820.00
2024-05-09T10:34:28.381Z,822.00
2024-05-09T10:35:28.269Z,823.00
2024-05-09T10:36:28.301Z,820.00
2024-05-09T10:37:28.339Z,819.00
2024-05-09T10:38:28.289Z,817.00
2024-05-09T10:39:28.452Z,812.00
2024-05-09T10:40:31.412Z,811.00
2024-05-09T10:41:28.539Z,815.00
2024-05-09T10:42:28.578Z,813.00
2024-05-09T10:43:28.562Z,814.00
2024-05-09T10:44:28.546Z,818.00
2024-05-09T10:45:28.580Z,819.00
2024-05-09T10:46:28.591Z,818.00
2024-05-09T10:47:28.675Z,820.00
2024-05-09T10:48:28.658Z,818.00
2024-05-09T10:49:28.572Z,817.00
2024-05-09T10:50:31.986Z,818.00
2024-05-09T10:51:29.611Z,820.00
2024-05-09T10:52:28.609Z,823.00
2024-05-09T10:53:28.542Z,823.00
2024-05-09T10:54:28.600Z,823.00
2024-05-09T10:55:28.582Z,827.00
2024-05-09T10:56:28.562Z,822.00
2024-05-09T10:57:28.629Z,820.00
2024-05-09T10:58:42.701Z,820.00
2024-05-09T10:59:28.600Z,819.00
2024-05-09T11:00:33.846Z,820.00
2024-05-09T11:01:29.654Z,821.00
2024-05-09T11:02:28.734Z,820.00
2024-05-09T11:03:28.736Z,820.00
2024-05-09T11:04:28.647Z,821.00
2024-05-09T11:05:28.737Z,820.00
2024-05-09T11:06:28.591Z,823.00
2024-05-09T11:07:28.631Z,820.00
2024-05-09T11:08:28.710Z,822.00
2024-05-09T11:09:28.913Z,822.00
2024-05-09T11:10:33.765Z,825.00
2024-05-09T11:11:29.997Z,822.00
2024-05-09T11:12:29.009Z,823.00
2024-05-09T11:13:29.000Z,823.00
2024-05-09T11:14:28.973Z,822.00
2024-05-09T11:15:29.011Z,823.00
2024-05-09T11:16:29.024Z,823.00
2024-05-09T11:17:29.094Z,821.00
2024-05-09T11:18:31.880Z,819.00
2024-05-09T11:19:30.066Z,815.00
2024-05-09T11:20:30.012Z,816.00
2024-05-09T11:21:29.020Z,816.00
2024-05-09T11:22:28.976Z,816.00
2024-05-09T11:23:28.993Z,817.00
2024-05-09T11:24:29.056Z,817.00
2024-05-09T11:25:28.996Z,819.00
2024-05-09T11:26:29.004Z,818.00
2024-05-09T11:27:29.025Z,821.00
2024-05-09T11:28:29.224Z,819.00
2024-05-09T11:29:29.024Z,819.00
2024-05-09T11:30:31.901Z,823.00
2024-05-09T11:31:29.113Z,822.00
2024-05-09T11:32:29.392Z,821.00
2024-05-09T11:33:29.134Z,820.00
2024-05-09T11:34:29.061Z,821.00
2024-05-09T11:35:28.992Z,822.00
2024-05-09T11:36:29.067Z,821.00
2024-05-09T11:37:29.009Z,823.00
2024-05-09T11:38:29.012Z,824.00
2024-05-09T11:39:29.030Z,827.00
2024-05-09T11:40:34.175Z,826.00
2024-05-09T11:41:30.004Z,824.00
2024-05-09T11:42:29.030Z,823.00
2024-05-09T11:43:29.047Z,822.00
2024-05-09T11:44:29.048Z,826.00
2024-05-09T11:45:29.028Z,828.00
2024-05-09T11:46:29.057Z,828.00
2024-05-09T11:47:29.079Z,828.00
2024-05-09T11:48:29.157Z,825.00
2024-05-09T11:49:29.246Z,825.00
2024-05-09T11:50:33.182Z,827.00
2024-05-09T11:51:30.289Z,824.00
2024-05-09T11:52:29.237Z,824.00
2024-05-09T11:53:29.343Z,825.00
2024-05-09T11:54:29.300Z,826.00
2024-05-09T11:55:29.454Z,823.00
2024-05-09T11:56:29.264Z,824.00
2024-05-09T11:57:29.331Z,824.00
2024-05-09T11:58:29.306Z,826.00
2024-05-09T11:59:29.258Z,825.00
2024-05-09T12:00:36.200Z,825.00
2024-05-09T12:01:30.481Z,827.00
2024-05-09T12:02:29.411Z,828.00
2024-05-09T12:03:29.361Z,831.00
2024-05-09T12:04:29.455Z,830.00
2024-05-09T12:05:29.485Z,832.00
2024-05-09T12:06:29.382Z,831.00
2024-05-09T12:07:29.327Z,830.00
2024-05-09T12:08:29.324Z,831.00
2024-05-09T12:09:29.395Z,832.00
2024-05-09T12:10:32.913Z,830.00
2024-05-09T12:11:30.515Z,830.00
2024-05-09T12:12:29.466Z,832.00
2024-05-09T12:13:29.526Z,829.00
2024-05-09T12:14:29.494Z,829.00
2024-05-09T12:15:29.549Z,827.00
2024-05-09T12:16:29.616Z,828.00
2024-05-09T12:17:29.681Z,830.00
2024-05-09T12:18:29.815Z,828.00
2024-05-09T12:19:29.535Z,827.00
2024-05-09T12:20:36.187Z,822.00
2024-05-09T12:21:30.516Z,821.00
2024-05-09T12:22:29.491Z,822.00
2024-05-09T12:23:29.486Z,821.00
2024-05-09T12:24:29.552Z,821.00
2024-05-09T12:25:29.495Z,820.00
2024-05-09T12:26:29.493Z,820.00
2024-05-09T12:27:29.513Z,819.00
2024-05-09T12:28:29.530Z,823.00
2024-05-09T12:29:29.634Z,824.00
2024-05-09T12:30:36.404Z,823.00